createdAt,value
2023-09-16T00:01:52.408Z,60.23
2023-09-16T00:04:19.635Z,60.27
2023-09-16T00:06:47.599Z,60.37
2023-09-16T00:09:14.595Z,60.39
2023-09-16T00:11:41.592Z,60.36
2023-09-16T00:14:08.516Z,60.27
2023-09-16T00:16:35.495Z,60.34
2023-09-16T00:19:04.346Z,60.56
2023-09-16T00:21:31.432Z,60.48
2023-09-16T00:24:01.477Z,60.38
2023-09-16T00:26:28.476Z,60.20
2023-09-16T00:28:55.811Z,60.65
2023-09-16T00:31:22.930Z,60.66
2023-09-16T00:33:50.730Z,60.91
2023-09-16T00:36:17.822Z,60.69
2023-09-16T00:38:45.058Z,60.95
2023-09-16T00:41:13.750Z,61.05
2023-09-16T00:43:40.996Z,61.02
2023-09-16T00:46:07.959Z,60.91
2023-09-16T00:48:36.585Z,60.92
2023-09-16T00:51:04.381Z,61.03
2023-09-16T00:53:31.541Z,61.22
2023-09-16T00:55:58.568Z,61.07
2023-09-16T00:58:25.681Z,61.11
2023-09-16T01:00:53.898Z,61.16
2023-09-16T01:03:21.092Z,61.46
2023-09-16T01:05:48.920Z,61.45
2023-09-16T01:08:17.568Z,61.89
2023-09-16T01:10:44.775Z,62.08
2023-09-16T01:13:12.135Z,62.21
2023-09-16T01:15:47.869Z,62.29
2023-09-16T01:18:22.774Z,62.10
2023-09-16T01:20:51.317Z,62.01
2023-09-16T01:23:21.170Z,62.38
2023-09-16T01:25:48.313Z,62.42
2023-09-16T01:28:15.659Z,62.47
2023-09-16T01:30:48.377Z,62.43
2023-09-16T01:33:28.559Z,62.62
2023-09-16T01:36:06.642Z,62.46
2023-09-16T01:38:38.528Z,62.57
2023-09-16T01:41:06.251Z,62.37
2023-09-16T01:43:33.588Z,62.64
2023-09-16T01:46:00.776Z,62.78
2023-09-16T01:48:44.484Z,63.05
2023-09-16T01:51:14.496Z,63.37
2023-09-16T01:53:43.129Z,63.26
2023-09-16T01:56:10.088Z,63.18
2023-09-16T01:58:37.121Z,63.23
2023-09-16T02:01:12.462Z,63.28
2023-09-16T02:03:39.528Z,63.32
2023-09-16T02:06:09.743Z,63.30
2023-09-16T02:08:38.348Z,63.58
2023-09-16T02:11:05.838Z,63.76
2023-09-16T02:13:33.992Z,63.90
2023-09-16T02:16:01.257Z,64.20
2023-09-16T02:18:29.025Z,64.09
2023-09-16T02:20:56.011Z,64.17
2023-09-16T02:23:23.484Z,64.33
2023-09-16T02:25:50.469Z,64.51
2023-09-16T02:28:17.375Z,64.55
2023-09-16T02:30:44.513Z,64.52
2023-09-16T02:33:11.627Z,64.69
2023-09-16T02:35:40.715Z,64.67
2023-09-16T02:38:07.879Z,64.65
2023-09-16T02:40:35.253Z,64.54
2023-09-16T02:43:02.325Z,64.60
2023-09-16T02:45:29.364Z,64.43
2023-09-16T02:47:56.443Z,64.54
2023-09-16T02:50:23.380Z,64.52
2023-09-16T02:52:50.414Z,64.70
2023-09-16T02:55:17.555Z,64.70
2023-09-16T02:57:44.743Z,64.75
2023-09-16T03:00:12.255Z,64.66
2023-09-16T03:02:39.255Z,64.76
2023-09-16T03:05:06.537Z,64.91
2023-09-16T03:07:33.474Z,64.82
2023-09-16T03:10:00.622Z,65.15
2023-09-16T03:12:27.699Z,65.13
2023-09-16T03:14:54.684Z,65.24
2023-09-16T03:17:21.706Z,65.06
2023-09-16T03:19:48.735Z,65.08
2023-09-16T03:22:15.688Z,65.34
2023-09-16T03:24:43.871Z,65.39
2023-09-16T03:27:11.592Z,65.42
2023-09-16T03:29:38.652Z,65.58
2023-09-16T03:32:05.766Z,65.63
2023-09-16T03:34:34.146Z,65.88
2023-09-16T03:37:01.191Z,65.98
2023-09-16T03:39:28.556Z,65.99
2023-09-16T03:41:56.187Z,65.89
2023-09-16T03:44:23.949Z,65.84
2023-09-16T03:46:51.030Z,65.61
2023-09-16T03:49:18.311Z,65.58
2023-09-16T03:51:47.119Z,65.83
2023-09-16T03:54:14.588Z,65.60
2023-09-16T03:56:43.380Z,66.00
2023-09-16T03:59:13.099Z,65.83
2023-09-16T04:01:40.109Z,65.94
2023-09-16T04:04:08.946Z,66.19
2023-09-16T04:06:36.013Z,66.11
2023-09-16T04:09:03.059Z,66.32
2023-09-16T04:11:30.033Z,66.24
2023-09-16T04:13:57.261Z,66.34
2023-09-16T04:16:26.824Z,66.40
2023-09-16T04:18:54.836Z,66.49
2023-09-16T04:21:21.980Z,66.51
2023-09-16T04:23:49.254Z,66.35
2023-09-16T04:26:17.426Z,66.67
2023-09-16T04:28:47.148Z,66.67
2023-09-16T04:31:14.320Z,66.80
2023-09-16T04:33:42.153Z,66.70
2023-09-16T04:36:10.858Z,66.86
2023-09-16T04:38:38.943Z,66.91
2023-09-16T04:41:06.874Z,66.82
2023-09-16T04:43:34.322Z,66.91
2023-09-16T04:46:02.536Z,67.15
2023-09-16T04:48:37.197Z,66.64
2023-09-16T04:51:05.017Z,66.84
2023-09-16T04:53:33.466Z,67.16
2023-09-16T04:56:01.950Z,67.20
2023-09-16T04:58:32.530Z,67.40
2023-09-16T05:01:01.357Z,67.39
2023-09-16T05:03:29.191Z,67.67
2023-09-16T05:05:56.364Z,67.65
2023-09-16T05:08:29.307Z,67.73
2023-09-16T05:10:57.535Z,67.77
2023-09-16T05:13:24.872Z,67.63
2023-09-16T05:15:52.985Z,67.90
2023-09-16T05:18:20.019Z,67.75
2023-09-16T05:20:50.914Z,67.89
2023-09-16T05:23:18.284Z,67.94
2023-09-16T05:25:47.540Z,68.16
2023-09-16T05:28:18.654Z,68.08
2023-09-16T05:30:46.140Z,68.05
2023-09-16T05:33:15.516Z,67.88
2023-09-16T05:35:43.499Z,68.00
2023-09-16T05:38:11.001Z,68.08
2023-09-16T05:40:38.500Z,68.08
2023-09-16T05:43:06.312Z,68.10
2023-09-16T05:45:33.377Z,68.12
2023-09-16T05:48:04.656Z,68.22
2023-09-16T05:50:36.659Z,68.07
2023-09-16T05:53:07.086Z,68.29
2023-09-16T05:55:44.453Z,67.97
2023-09-16T05:58:13.456Z,68.13
2023-09-16T06:00:41.494Z,68.39
2023-09-16T06:03:08.801Z,68.05
2023-09-16T06:05:35.905Z,68.13
2023-09-16T06:08:03.642Z,68.34
2023-09-16T06:10:30.712Z,68.20
2023-09-16T06:12:57.785Z,68.28
2023-09-16T06:15:25.002Z,68.33
2023-09-16T06:17:51.945Z,68.29
2023-09-16T06:20:18.963Z,68.48
2023-09-16T06:22:46.051Z,68.15
2023-09-16T06:25:15.896Z,68.53
2023-09-16T06:27:42.981Z,68.37
2023-09-16T06:30:10.976Z,68.38
2023-09-16T06:32:39.033Z,68.51
2023-09-16T06:35:06.528Z,68.46
2023-09-16T06:37:33.530Z,68.73
2023-09-16T06:40:01.406Z,68.50
2023-09-16T06:42:28.638Z,68.65
2023-09-16T06:44:56.552Z,68.79
2023-09-16T06:47:27.906Z,68.81
2023-09-16T06:49:56.185Z,68.86
2023-09-16T06:52:23.723Z,68.75
2023-09-16T06:54:51.211Z,68.75
2023-09-16T06:57:18.202Z,68.77
2023-09-16T06:59:48.916Z,68.81
2023-09-16T07:02:16.945Z,68.97
2023-09-16T07:04:44.128Z,69.03
2023-09-16T07:07:11.145Z,69.02
2023-09-16T07:09:38.316Z,69.01
2023-09-16T07:12:07.483Z,69.28
2023-09-16T07:14:38.804Z,69.09
2023-09-16T07:17:06.395Z,69.07
2023-09-16T07:19:35.384Z,69.06
2023-09-16T07:22:02.649Z,69.15
2023-09-16T07:24:30.119Z,69.17
2023-09-16T07:26:57.740Z,69.47
2023-09-16T07:29:24.805Z,69.61
2023-09-16T07:31:51.962Z,69.67
2023-09-16T07:34:20.696Z,69.23
2023-09-16T07:36:47.894Z,69.23
2023-09-16T07:39:15.069Z,69.00
2023-09-16T07:41:43.163Z,68.50
2023-09-16T07:44:10.288Z,68.67
2023-09-16T07:46:37.504Z,68.38
2023-09-16T07:49:04.598Z,68.48
2023-09-16T07:51:31.731Z,68.42
2023-09-16T07:53:58.700Z,67.43
2023-09-16T07:56:25.836Z,66.12
2023-09-16T07:58:52.963Z,65.86
2023-09-16T08:01:20.147Z,65.68
2023-09-16T08:03:47.346Z,66.00
2023-09-16T08:06:14.512Z,64.54
2023-09-16T08:08:41.526Z,63.12
2023-09-16T08:11:08.619Z,61.66
2023-09-16T08:13:35.683Z,59.75
2023-09-16T08:16:02.851Z,58.48
2023-09-16T08:18:29.908Z,57.70
2023-09-16T08:20:57.101Z,56.21
2023-09-16T08:23:24.094Z,54.91
2023-09-16T08:25:51.090Z,54.49
2023-09-16T08:28:18.161Z,53.45
2023-09-16T08:30:45.179Z,52.74
2023-09-16T08:33:12.555Z,51.76
2023-09-16T08:35:39.573Z,51.46
2023-09-16T08:38:08.638Z,49.73
2023-09-16T08:40:35.741Z,49.20
2023-09-16T08:43:18.925Z,49.02
2023-09-16T08:45:55.395Z,47.80
2023-09-16T08:48:26.768Z,47.42
2023-09-16T08:50:55.462Z,47.00
2023-09-16T08:53:25.972Z,46.85
2023-09-16T08:55:53.718Z,45.74
2023-09-16T08:58:21.439Z,45.48
2023-09-16T09:00:48.592Z,44.40
2023-09-16T09:03:15.678Z,43.35
2023-09-16T09:05:44.750Z,41.73
2023-09-16T09:08:13.091Z,41.46
2023-09-16T09:10:43.750Z,40.72
2023-09-16T09:13:14.054Z,40.38
2023-09-16T09:15:42.638Z,39.57
2023-09-16T09:18:13.094Z,38.88
2023-09-16T09:20:40.191Z,38.89
2023-09-16T09:23:11.407Z,38.31
2023-09-16T09:25:43.056Z,38.63
2023-09-16T09:28:10.526Z,39.00
2023-09-16T09:30:40.676Z,38.47
2023-09-16T09:33:15.373Z,38.21
2023-09-16T09:35:43.165Z,38.14
2023-09-16T09:38:10.128Z,37.68
2023-09-16T09:40:37.185Z,37.39
2023-09-16T09:43:04.992Z,38.49
2023-09-16T09:45:38.081Z,38.87
2023-09-16T09:48:05.475Z,39.99
2023-09-16T09:50:33.186Z,41.04
2023-09-16T09:53:02.381Z,41.82
2023-09-16T09:55:31.102Z,43.45
2023-09-16T09:57:58.420Z,43.57
2023-09-16T10:00:25.590Z,43.92
2023-09-16T10:05:36.717Z,43.42
2023-09-16T10:08:04.019Z,43.95
2023-09-16T10:10:33.050Z,43.37
2023-09-16T10:13:00.156Z,44.29
2023-09-16T10:15:28.943Z,44.15
2023-09-16T10:17:57.872Z,44.17
2023-09-16T10:20:25.196Z,44.85
2023-09-16T10:22:53.842Z,44.52
2023-09-16T10:25:21.135Z,44.92
2023-09-16T10:28:05.162Z,45.19
2023-09-16T10:30:34.383Z,45.45
2023-09-16T10:33:03.518Z,45.02
2023-09-16T10:35:31.217Z,45.32
2023-09-16T10:38:01.227Z,44.51
2023-09-16T10:40:28.705Z,44.31
2023-09-16T10:42:57.562Z,44.27
2023-09-16T10:45:27.072Z,44.62
2023-09-16T10:47:55.591Z,44.71
2023-09-16T10:50:30.423Z,44.51
2023-09-16T10:53:12.205Z,44.85
2023-09-16T10:55:52.884Z,45.18
2023-09-16T10:58:33.476Z,45.36
2023-09-16T11:01:02.377Z,45.05
2023-09-16T11:03:33.651Z,45.48
2023-09-16T11:06:02.922Z,45.72
2023-09-16T11:08:30.224Z,45.47
2023-09-16T11:10:57.792Z,45.40
2023-09-16T11:13:27.955Z,45.70
2023-09-16T11:15:59.227Z,45.76
2023-09-16T11:18:26.545Z,45.55
2023-09-16T11:20:55.075Z,46.10
2023-09-16T11:23:23.166Z,46.41
2023-09-16T11:25:50.263Z,45.94
2023-09-16T11:28:20.695Z,46.07
2023-09-16T11:30:59.935Z,46.09
2023-09-16T11:33:27.187Z,46.49
2023-09-16T11:36:23.751Z,45.55
2023-09-16T11:39:12.960Z,45.66
2023-09-16T11:41:40.090Z,44.71
2023-09-16T11:44:08.856Z,44.82
2023-09-16T11:46:36.322Z,44.01
2023-09-16T11:49:06.887Z,44.36
2023-09-16T11:51:35.773Z,44.27
2023-09-16T11:54:04.031Z,44.76
2023-09-16T11:56:32.707Z,45.06
2023-09-16T11:59:00.120Z,45.20
2023-09-16T12:01:39.352Z,44.58
2023-09-16T12:04:07.860Z,44.07
2023-09-16T12:06:37.002Z,44.28
2023-09-16T12:09:06.633Z,44.80
2023-09-16T12:11:35.042Z,44.20
2023-09-16T12:14:04.570Z,44.90
2023-09-16T12:16:32.047Z,45.01
2023-09-16T12:18:59.131Z,45.25
2023-09-16T12:21:26.377Z,44.50
2023-09-16T12:23:53.666Z,45.14
2023-09-16T12:26:21.127Z,44.76
2023-09-16T12:28:48.982Z,45.15
2023-09-16T12:31:25.035Z,45.26
2023-09-16T12:33:56.838Z,44.85
2023-09-16T12:36:31.539Z,44.78
2023-09-16T12:39:01.718Z,45.01
2023-09-16T12:41:30.370Z,44.49
2023-09-16T12:43:59.339Z,44.96
2023-09-16T12:46:29.652Z,45.06
2023-09-16T12:48:57.685Z,45.17
2023-09-16T12:51:25.490Z,44.85
2023-09-16T12:53:54.993Z,44.79
2023-09-16T12:56:24.897Z,44.81
2023-09-16T12:58:52.457Z,44.33
2023-09-16T13:01:21.414Z,44.80
2023-09-16T13:03:48.985Z,45.15
2023-09-16T13:06:16.393Z,44.86
2023-09-16T13:08:44.767Z,45.23
2023-09-16T13:11:15.331Z,45.17
2023-09-16T13:13:42.496Z,45.01
2023-09-16T13:16:12.140Z,45.72
2023-09-16T13:18:40.713Z,45.38
2023-09-16T13:21:08.255Z,45.06
2023-09-16T13:23:35.692Z,45.27
2023-09-16T13:26:12.135Z,45.50
2023-09-16T13:28:39.556Z,45.64
2023-09-16T13:31:07.037Z,44.80
2023-09-16T13:33:50.899Z,44.95
2023-09-16T13:36:18.189Z,45.28
2023-09-16T13:38:46.506Z,45.12
2023-09-16T13:41:13.716Z,44.87
2023-09-16T13:43:40.689Z,45.58
2023-09-16T13:46:07.868Z,45.18
2023-09-16T13:48:35.498Z,45.80
2023-09-16T13:51:05.554Z,45.53
2023-09-16T13:53:32.658Z,45.97
2023-09-16T13:56:00.258Z,46.23
2023-09-16T13:58:27.848Z,45.33
2023-09-16T14:00:55.748Z,45.83
2023-09-16T14:03:23.074Z,46.05
2023-09-16T14:05:50.338Z,46.30
2023-09-16T14:08:17.446Z,45.60
2023-09-16T14:10:44.614Z,45.83
2023-09-16T14:13:11.845Z,46.55
2023-09-16T14:15:40.454Z,46.46
2023-09-16T14:18:09.460Z,46.44
2023-09-16T14:20:37.516Z,46.35
2023-09-16T14:23:06.721Z,46.50
2023-09-16T14:25:35.451Z,46.22
2023-09-16T14:28:06.453Z,46.05
2023-09-16T14:30:33.604Z,46.55
2023-09-16T14:33:00.849Z,46.31
2023-09-16T14:35:35.734Z,46.58
2023-09-16T14:38:05.275Z,46.95
2023-09-16T14:40:35.651Z,46.68
2023-09-16T14:43:03.897Z,46.94
2023-09-16T14:45:31.102Z,47.08
2023-09-16T14:47:58.553Z,46.76
2023-09-16T14:50:26.057Z,46.85
2023-09-16T14:52:53.184Z,46.90
2023-09-16T14:55:20.609Z,47.02
2023-09-16T14:57:48.830Z,47.65
2023-09-16T15:00:15.975Z,47.37
2023-09-16T15:02:43.794Z,47.38
2023-09-16T15:05:13.372Z,47.47
2023-09-16T15:07:40.755Z,47.32
2023-09-16T15:10:08.911Z,47.03
2023-09-16T15:12:36.265Z,47.24
2023-09-16T15:15:03.412Z,47.59
2023-09-16T15:17:30.481Z,47.08
2023-09-16T15:19:58.534Z,47.17
2023-09-16T15:22:26.523Z,47.46
2023-09-16T15:24:53.773Z,47.65
2023-09-16T15:27:21.580Z,47.36
2023-09-16T15:29:48.782Z,47.81
2023-09-16T15:32:39.013Z,47.90
2023-09-16T15:35:03.350Z,47.57
2023-09-16T15:37:31.845Z,47.74
2023-09-16T15:39:58.969Z,47.55
2023-09-16T15:42:26.234Z,47.73
2023-09-16T15:44:56.052Z,47.58
2023-09-16T15:47:23.439Z,47.88
2023-09-16T15:49:50.519Z,47.79
2023-09-16T15:52:18.396Z,48.24
2023-09-16T15:54:45.468Z,48.44
2023-09-16T15:57:12.540Z,48.12
2023-09-16T15:59:39.790Z,48.51
2023-09-16T16:02:07.519Z,48.53
2023-09-16T16:04:34.982Z,48.63
2023-09-16T16:07:02.074Z,49.11
2023-09-16T16:09:29.175Z,49.29
2023-09-16T16:11:56.294Z,49.55
2023-09-16T16:14:23.380Z,49.41
2023-09-16T16:16:50.722Z,49.37
2023-09-16T16:19:18.298Z,49.67
2023-09-16T16:21:46.592Z,49.36
2023-09-16T16:24:13.641Z,49.86
2023-09-16T16:26:40.626Z,49.75
2023-09-16T16:29:08.291Z,50.13
2023-09-16T16:31:35.364Z,50.02
2023-09-16T16:34:02.508Z,49.74
2023-09-16T16:36:29.601Z,50.20
2023-09-16T16:38:57.445Z,50.07
2023-09-16T16:41:24.882Z,50.34
2023-09-16T16:43:52.405Z,50.42
2023-09-16T16:46:19.986Z,50.56
2023-09-16T16:48:47.183Z,50.65
2023-09-16T16:51:14.976Z,50.89
2023-09-16T16:53:42.055Z,50.75
2023-09-16T16:56:09.231Z,51.17
2023-09-16T16:58:37.027Z,51.09
2023-09-16T17:01:04.420Z,51.58
2023-09-16T17:03:31.592Z,51.60
2023-09-16T17:05:59.109Z,51.76
2023-09-16T17:08:26.234Z,52.09
2023-09-16T17:10:53.467Z,51.71
2023-09-16T17:13:20.575Z,51.75
2023-09-16T17:15:47.799Z,52.31
2023-09-16T17:18:14.979Z,52.38
2023-09-16T17:20:42.169Z,51.93
2023-09-16T17:23:09.303Z,52.01
2023-09-16T17:25:38.563Z,51.92
2023-09-16T17:28:08.737Z,52.43
2023-09-16T17:30:35.991Z,52.00
2023-09-16T17:33:04.696Z,52.23
2023-09-16T17:35:32.176Z,52.27
2023-09-16T17:37:59.295Z,52.81
2023-09-16T17:40:26.346Z,52.61
2023-09-16T17:42:53.421Z,52.55
2023-09-16T17:45:20.440Z,52.87
2023-09-16T17:47:47.681Z,52.73
2023-09-16T17:50:15.196Z,52.78
2023-09-16T17:52:42.619Z,52.90
2023-09-16T17:55:10.166Z,52.90
2023-09-16T17:57:37.277Z,52.55
2023-09-16T18:00:04.738Z,52.63
2023-09-16T18:02:40.681Z,52.57
2023-09-16T18:05:08.187Z,52.81
2023-09-16T18:07:36.177Z,52.59
2023-09-16T18:10:04.808Z,52.69
2023-09-16T18:12:31.959Z,53.11
2023-09-16T18:14:59.171Z,53.10
2023-09-16T18:17:26.713Z,52.88
2023-09-16T18:19:53.735Z,53.04
2023-09-16T18:22:20.929Z,52.77
2023-09-16T18:24:47.986Z,52.99
2023-09-16T18:27:15.029Z,53.00
2023-09-16T18:29:42.065Z,53.17
2023-09-16T18:32:09.195Z,52.99
2023-09-16T18:34:36.378Z,53.05
2023-09-16T18:37:04.644Z,53.41
2023-09-16T18:39:32.047Z,53.63
2023-09-16T18:41:59.127Z,53.49
2023-09-16T18:44:27.546Z,53.60
2023-09-16T18:46:56.618Z,53.27
2023-09-16T18:49:24.371Z,53.61
2023-09-16T18:51:51.673Z,53.66
2023-09-16T18:54:18.739Z,53.22
2023-09-16T18:56:45.859Z,54.13
2023-09-16T18:59:15.945Z,55.01
2023-09-16T19:01:43.698Z,55.12
2023-09-16T19:04:10.885Z,55.61
2023-09-16T19:06:37.903Z,56.51
2023-09-16T19:09:05.644Z,56.91
2023-09-16T19:11:32.776Z,57.04
2023-09-16T19:13:59.879Z,57.76
2023-09-16T19:16:26.985Z,57.93
2023-09-16T19:18:54.112Z,58.18
2023-09-16T19:21:21.340Z,59.01
2023-09-16T19:23:49.485Z,59.50
2023-09-16T19:26:16.783Z,59.94
2023-09-16T19:28:43.839Z,60.54
2023-09-16T19:31:10.909Z,60.60
2023-09-16T19:33:38.029Z,60.91
2023-09-16T19:36:05.400Z,60.97
2023-09-16T19:38:42.104Z,60.01
2023-09-16T19:41:10.044Z,60.23
2023-09-16T19:43:37.937Z,61.36
2023-09-16T19:46:09.717Z,61.88
2023-09-16T19:48:37.588Z,61.25
2023-09-16T19:51:05.195Z,60.79
2023-09-16T19:53:33.690Z,60.15
2023-09-16T19:56:01.204Z,60.13
2023-09-16T19:58:28.767Z,59.85
2023-09-16T20:01:01.503Z,60.24
2023-09-16T20:03:30.406Z,60.50
2023-09-16T20:06:04.116Z,60.23
2023-09-16T20:08:31.154Z,59.88
2023-09-16T20:10:58.411Z,60.17
2023-09-16T20:13:25.832Z,60.02
2023-09-16T20:15:52.938Z,60.48
2023-09-16T20:18:20.009Z,60.79
2023-09-16T20:20:47.450Z,61.08
2023-09-16T20:23:14.457Z,60.34
2023-09-16T20:25:45.251Z,60.04
2023-09-16T20:28:12.752Z,60.26
2023-09-16T20:30:39.802Z,60.55
2023-09-16T20:33:07.189Z,61.32
2023-09-16T20:35:34.274Z,61.91
2023-09-16T20:38:01.992Z,62.12
2023-09-16T20:40:29.285Z,62.21
2023-09-16T20:42:56.618Z,62.08
2023-09-16T20:45:24.076Z,62.90
2023-09-16T20:47:51.247Z,62.40
2023-09-16T20:50:19.964Z,62.79
2023-09-16T20:52:46.947Z,62.84
2023-09-16T20:55:14.063Z,62.59
2023-09-16T20:57:41.142Z,62.19
2023-09-16T21:00:10.626Z,61.83
2023-09-16T21:02:37.891Z,62.31
2023-09-16T21:05:05.489Z,62.39
2023-09-16T21:07:35.800Z,63.11
2023-09-16T21:10:05.087Z,63.04
2023-09-16T21:12:32.154Z,62.80
2023-09-16T21:14:59.257Z,62.47
2023-09-16T21:17:26.386Z,62.97
2023-09-16T21:19:53.486Z,62.49
2023-09-16T21:22:20.528Z,62.30
2023-09-16T21:24:49.540Z,62.13
2023-09-16T21:27:16.804Z,62.27
2023-09-16T21:29:43.790Z,62.46
2023-09-16T21:32:12.504Z,62.26
2023-09-16T21:34:39.682Z,62.44
2023-09-16T21:37:06.841Z,61.86
2023-09-16T21:39:37.325Z,61.97
2023-09-16T21:42:05.737Z,61.95
2023-09-16T21:44:33.623Z,61.49
2023-09-16T21:47:00.923Z,61.77
2023-09-16T21:49:28.105Z,61.57
2023-09-16T21:51:55.266Z,62.19
2023-09-16T21:54:22.634Z,62.21
2023-09-16T21:56:49.639Z,62.16
2023-09-16T21:59:16.687Z,62.07
2023-09-16T22:01:43.997Z,62.64
2023-09-16T22:04:12.125Z,62.14
2023-09-16T22:06:39.284Z,62.24
2023-09-16T22:09:06.344Z,62.26
2023-09-16T22:11:33.435Z,62.52
2023-09-16T22:14:00.514Z,62.63
2023-09-16T22:16:30.447Z,62.62
2023-09-16T22:18:57.605Z,62.50
2023-09-16T22:21:24.682Z,62.72
2023-09-16T22:23:51.928Z,62.66
2023-09-16T22:26:19.274Z,63.26
2023-09-16T22:28:46.413Z,63.28
2023-09-16T22:31:16.957Z,63.11
2023-09-16T22:33:44.480Z,63.68
2023-09-16T22:36:11.597Z,63.37
2023-09-16T22:38:38.681Z,63.11
2023-09-16T22:41:05.990Z,63.29
2023-09-16T22:43:33.067Z,63.31
2023-09-16T22:46:00.059Z,63.20
2023-09-16T22:48:27.083Z,63.43
2023-09-16T22:50:54.231Z,63.16
2023-09-16T22:53:21.294Z,63.25
2023-09-16T22:55:48.359Z,62.85
2023-09-16T22:58:15.447Z,62.43
2023-09-16T23:00:42.617Z,62.31
2023-09-16T23:03:09.861Z,62.37
2023-09-16T23:05:37.043Z,62.33
2023-09-16T23:08:04.576Z,62.13
2023-09-16T23:10:31.883Z,61.95
2023-09-16T23:12:58.963Z,61.20
2023-09-16T23:15:26.134Z,61.12
2023-09-16T23:17:54.408Z,60.93
2023-09-16T23:20:21.768Z,61.56
2023-09-16T23:22:48.779Z,61.22
2023-09-16T23:25:16.514Z,61.16
2023-09-16T23:27:43.657Z,61.13
2023-09-16T23:30:11.215Z,61.03
2023-09-16T23:32:38.243Z,60.87
2023-09-16T23:35:05.565Z,61.07
2023-09-16T23:37:32.986Z,61.40
2023-09-16T23:40:00.387Z,61.37
2023-09-16T23:42:27.743Z,61.12
2023-09-16T23:44:55.082Z,60.79
2023-09-16T23:47:22.617Z,60.53
2023-09-16T23:49:49.718Z,60.40
2023-09-16T23:52:16.790Z,60.15
2023-09-16T23:54:43.843Z,60.18
2023-09-16T23:57:10.826Z,60.56
2023-09-16T23:59:37.783Z,60.51
